sensor_id;sensor_type;location;lat;lon;timestamp;pressure;altitude;pressure_sealevel;temperature;humidity
34177;BME280;20450;49.074;9.158;2023-08-01T00:00:48;98703.94;;;19.54;84.35
34177;BME280;20450;49.074;9.158;2023-08-01T00:03:15;98707.69;;;19.58;84.35
34177;BME280;20450;49.074;9.158;2023-08-01T00:05:43;98705.50;;;19.60;83.98
34177;BME280;20450;49.074;9.158;2023-08-01T00:08:11;98707.97;;;19.37;84.63
34177;BME280;20450;49.074;9.158;2023-08-01T00:10:38;98707.22;;;19.32;84.90
34177;BME280;20450;49.074;9.158;2023-08-01T00:13:07;98709.13;;;19.31;84.86
34177;BME280;20450;49.074;9.158;2023-08-01T00:15:35;98708.72;;;19.19;85.58
34177;BME280;20450;49.074;9.158;2023-08-01T00:18:04;98705.03;;;19.10;85.86
34177;BME280;20450;49.074;9.158;2023-08-01T00:20:31;98706.56;;;19.16;86.07
34177;BME280;20450;49.074;9.158;2023-08-01T00:22:59;98692.56;;;18.99;86.19
34177;BME280;20450;49.074;9.158;2023-08-01T00:25:26;98688.19;;;18.98;86.41
34177;BME280;20450;49.074;9.158;2023-08-01T00:27:53;98679.44;;;18.96;87.56
34177;BME280;20450;49.074;9.158;2023-08-01T00:30:20;98675.72;;;18.87;87.70
34177;BME280;20450;49.074;9.158;2023-08-01T00:32:49;98667.84;;;18.81;88.04
34177;BME280;20450;49.074;9.158;2023-08-01T00:35:17;98654.41;;;18.84;88.44
34177;BME280;20450;49.074;9.158;2023-08-01T00:37:46;98633.69;;;18.78;89.06
34177;BME280;20450;49.074;9.158;2023-08-01T00:40:13;98615.72;;;18.72;90.56
34177;BME280;20450;49.074;9.158;2023-08-01T00:42:41;98608.09;;;18.46;91.62
34177;BME280;20450;49.074;9.158;2023-08-01T00:45:10;98586.31;;;18.36;91.67
34177;BME280;20450;49.074;9.158;2023-08-01T00:47:38;98568.81;;;18.37;91.67
34177;BME280;20450;49.074;9.158;2023-08-01T00:50:06;98571.00;;;18.35;91.27
34177;BME280;20450;49.074;9.158;2023-08-01T00:52:36;98574.09;;;18.28;91.21
34177;BME280;20450;49.074;9.158;2023-08-01T00:55:05;98570.97;;;18.40;89.91
34177;BME280;20450;49.074;9.158;2023-08-01T00:57:36;98570.09;;;18.44;89.11
34177;BME280;20450;49.074;9.158;2023-08-01T01:00:04;98573.38;;;18.46;88.79
34177;BME280;20450;49.074;9.158;2023-08-01T01:02:32;98558.75;;;18.56;88.97
34177;BME280;20450;49.074;9.158;2023-08-01T01:05:01;98555.56;;;18.49;88.84
34177;BME280;20450;49.074;9.158;2023-08-01T01:07:29;98556.53;;;18.58;88.69
34177;BME280;20450;49.074;9.158;2023-08-01T01:10:00;98555.22;;;18.55;88.81
34177;BME280;20450;49.074;9.158;2023-08-01T01:12:27;98541.53;;;18.55;88.46
34177;BME280;20450;49.074;9.158;2023-08-01T01:14:54;98544.47;;;18.59;87.98
34177;BME280;20450;49.074;9.158;2023-08-01T01:17:21;98548.09;;;18.54;88.84
34177;BME280;20450;49.074;9.158;2023-08-01T01:19:49;98549.75;;;18.55;88.78
34177;BME280;20450;49.074;9.158;2023-08-01T01:22:19;98553.28;;;18.56;88.74
34177;BME280;20450;49.074;9.158;2023-08-01T01:24:47;98551.41;;;18.51;89.01
34177;BME280;20450;49.074;9.158;2023-08-01T01:27:16;98580.34;;;18.57;89.04
34177;BME280;20450;49.074;9.158;2023-08-01T01:29:45;98583.06;;;18.57;88.67
34177;BME280;20450;49.074;9.158;2023-08-01T01:32:16;98584.34;;;18.65;88.22
34177;BME280;20450;49.074;9.158;2023-08-01T01:34:44;98588.06;;;18.74;88.66
34177;BME280;20450;49.074;9.158;2023-08-01T01:37:11;98604.38;;;18.60;89.75
34177;BME280;20450;49.074;9.158;2023-08-01T01:39:40;98582.66;;;18.45;91.19
34177;BME280;20450;49.074;9.158;2023-08-01T01:42:07;98597.00;;;18.37;92.32
34177;BME280;20450;49.074;9.158;2023-08-01T01:44:36;98569.66;;;18.37;91.58
34177;BME280;20450;49.074;9.158;2023-08-01T01:47:04;98564.69;;;18.39;91.55
34177;BME280;20450;49.074;9.158;2023-08-01T01:49:32;98563.47;;;18.50;91.95
34177;BME280;20450;49.074;9.158;2023-08-01T01:51:59;98550.63;;;18.51;91.91
34177;BME280;20450;49.074;9.158;2023-08-01T01:54:26;98551.84;;;18.35;92.27
34177;BME280;20450;49.074;9.158;2023-08-01T01:56:55;98550.13;;;18.44;92.17
34177;BME280;20450;49.074;9.158;2023-08-01T01:59:22;98544.19;;;18.60;91.61
34177;BME280;20450;49.074;9.158;2023-08-01T02:01:49;98532.09;;;18.43;92.13
34177;BME280;20450;49.074;9.158;2023-08-01T02:04:16;98529.19;;;18.34;91.95
34177;BME280;20450;49.074;9.158;2023-08-01T02:06:43;98529.22;;;18.29;92.92
34177;BME280;20450;49.074;9.158;2023-08-01T02:09:10;98530.34;;;18.28;93.19
34177;BME280;20450;49.074;9.158;2023-08-01T02:11:37;98528.50;;;18.24;93.65
34177;BME280;20450;49.074;9.158;2023-08-01T02:14:06;98518.88;;;18.26;93.61
34177;BME280;20450;49.074;9.158;2023-08-01T02:16:33;98514.88;;;18.19;94.07
34177;BME280;20450;49.074;9.158;2023-08-01T02:19:00;98521.09;;;18.24;93.97
34177;BME280;20450;49.074;9.158;2023-08-01T02:21:27;98511.63;;;18.17;93.51
34177;BME280;20450;49.074;9.158;2023-08-01T02:23:54;98504.53;;;18.16;93.54
34177;BME280;20450;49.074;9.158;2023-08-01T02:26:21;98518.44;;;18.19;93.10
34177;BME280;20450;49.074;9.158;2023-08-01T02:28:48;98513.47;;;18.21;93.34
34177;BME280;20450;49.074;9.158;2023-08-01T02:31:17;98505.50;;;18.25;93.08
34177;BME280;20450;49.074;9.158;2023-08-01T02:33:44;98495.00;;;18.13;93.24
34177;BME280;20450;49.074;9.158;2023-08-01T02:36:11;98492.78;;;18.15;92.85
34177;BME280;20450;49.074;9.158;2023-08-01T02:38:39;98489.94;;;18.25;93.37
34177;BME280;20450;49.074;9.158;2023-08-01T02:41:06;98479.78;;;18.26;92.92
34177;BME280;20450;49.074;9.158;2023-08-01T02:43:33;98490.97;;;18.29;92.46
34177;BME280;20450;49.074;9.158;2023-08-01T02:46:00;98496.84;;;18.41;92.14
34177;BME280;20450;49.074;9.158;2023-08-01T02:48:29;98492.06;;;18.52;91.85
34177;BME280;20450;49.074;9.158;2023-08-01T02:50:55;98489.72;;;18.64;91.69
34177;BME280;20450;49.074;9.158;2023-08-01T02:53:23;98490.41;;;18.74;91.49
34177;BME280;20450;49.074;9.158;2023-08-01T02:55:51;98490.41;;;18.74;90.45
34177;BME280;20450;49.074;9.158;2023-08-01T02:58:17;98483.88;;;18.89;90.59
34177;BME280;20450;49.074;9.158;2023-08-01T03:00:45;98489.19;;;18.99;90.48
34177;BME280;20450;49.074;9.158;2023-08-01T03:03:12;98489.94;;;19.04;90.33
34177;BME280;20450;49.074;9.158;2023-08-01T03:05:40;98481.44;;;19.06;88.56
34177;BME280;20450;49.074;9.158;2023-08-01T03:08:07;98484.19;;;19.06;87.16
34177;BME280;20450;49.074;9.158;2023-08-01T03:10:34;98489.25;;;19.12;86.87
34177;BME280;20450;49.074;9.158;2023-08-01T03:13:03;98478.31;;;19.12;86.91
34177;BME280;20450;49.074;9.158;2023-08-01T03:15:31;98480.63;;;19.05;86.72
34177;BME280;20450;49.074;9.158;2023-08-01T03:17:58;98478.22;;;19.17;86.98
34177;BME280;20450;49.074;9.158;2023-08-01T03:20:25;98472.50;;;18.82;87.75
34177;BME280;20450;49.074;9.158;2023-08-01T03:22:54;98469.38;;;18.88;88.38
34177;BME280;20450;49.074;9.158;2023-08-01T03:25:21;98468.59;;;18.88;88.13
34177;BME280;20450;49.074;9.158;2023-08-01T03:27:48;98461.34;;;18.60;89.29
34177;BME280;20450;49.074;9.158;2023-08-01T03:30:15;98461.69;;;18.53;89.70
34177;BME280;20450;49.074;9.158;2023-08-01T03:32:43;98470.56;;;18.64;89.99
34177;BME280;20450;49.074;9.158;2023-08-01T03:35:10;98458.06;;;18.58;90.17
34177;BME280;20450;49.074;9.158;2023-08-01T03:37:37;98445.53;;;18.57;90.62
34177;BME280;20450;49.074;9.158;2023-08-01T03:40:07;98432.06;;;18.42;91.25
34177;BME280;20450;49.074;9.158;2023-08-01T03:42:35;98421.72;;;18.34;92.03
34177;BME280;20450;49.074;9.158;2023-08-01T03:45:03;98418.19;;;18.33;91.33
34177;BME280;20450;49.074;9.158;2023-08-01T03:47:31;98414.75;;;18.46;90.48
34177;BME280;20450;49.074;9.158;2023-08-01T03:49:58;98404.41;;;18.43;90.14
34177;BME280;20450;49.074;9.158;2023-08-01T03:52:26;98391.78;;;18.47;89.72
34177;BME280;20450;49.074;9.158;2023-08-01T03:54:54;98397.81;;;18.44;89.45
34177;BME280;20450;49.074;9.158;2023-08-01T03:57:25;98394.44;;;18.52;89.15
34177;BME280;20450;49.074;9.158;2023-08-01T03:59:52;98397.19;;;18.52;88.99
34177;BME280;20450;49.074;9.158;2023-08-01T04:02:19;98396.31;;;18.70;89.00
34177;BME280;20450;49.074;9.158;2023-08-01T04:04:49;98386.44;;;18.74;89.08
34177;BME280;20450;49.074;9.158;2023-08-01T04:07:17;98385.53;;;18.79;88.69
34177;BME280;20450;49.074;9.158;2023-08-01T04:09:43;98387.69;;;18.82;88.50
34177;BME280;20450;49.074;9.158;2023-08-01T04:12:10;98390.84;;;18.89;88.50
34177;BME280;20450;49.074;9.158;2023-08-01T04:14:39;98390.97;;;18.97;88.42
34177;BME280;20450;49.074;9.158;2023-08-01T04:17:06;98420.41;;;19.05;88.19
34177;BME280;20450;49.074;9.158;2023-08-01T04:19:36;98426.09;;;19.09;88.54
34177;BME280;20450;49.074;9.158;2023-08-01T04:22:05;98436.22;;;19.08;88.98
34177;BME280;20450;49.074;9.158;2023-08-01T04:24:32;98443.63;;;19.08;88.71
34177;BME280;20450;49.074;9.158;2023-08-01T04:27:00;98450.44;;;19.10;88.78
34177;BME280;20450;49.074;9.158;2023-08-01T04:29:27;98442.72;;;19.12;88.96
34177;BME280;20450;49.074;9.158;2023-08-01T04:31:55;98438.84;;;19.13;88.48
34177;BME280;20450;49.074;9.158;2023-08-01T04:34:22;98423.47;;;19.17;87.93
34177;BME280;20450;49.074;9.158;2023-08-01T04:36:49;98414.38;;;19.22;87.79
34177;BME280;20450;49.074;9.158;2023-08-01T04:39:16;98407.78;;;18.91;87.61
34177;BME280;20450;49.074;9.158;2023-08-01T04:41:44;98411.66;;;19.03;86.85
34177;BME280;20450;49.074;9.158;2023-08-01T04:44:12;98404.91;;;19.14;86.98
34177;BME280;20450;49.074;9.158;2023-08-01T04:46:39;98407.38;;;18.97;88.41
34177;BME280;20450;49.074;9.158;2023-08-01T04:49:08;98407.00;;;19.04;88.78
34177;BME280;20450;49.074;9.158;2023-08-01T04:51:35;98393.50;;;18.94;87.63
34177;BME280;20450;49.074;9.158;2023-08-01T04:54:02;98396.25;;;18.94;89.97
34177;BME280;20450;49.074;9.158;2023-08-01T04:56:29;98400.91;;;18.75;91.27
34177;BME280;20450;49.074;9.158;2023-08-01T04:58:57;98385.41;;;18.52;90.88
34177;BME280;20450;49.074;9.158;2023-08-01T05:01:24;98389.94;;;18.61;89.97
34177;BME280;20450;49.074;9.158;2023-08-01T05:03:51;98378.22;;;18.56;90.72
34177;BME280;20450;49.074;9.158;2023-08-01T05:06:19;98343.56;;;18.51;91.72
34177;BME280;20450;49.074;9.158;2023-08-01T05:08:47;98335.88;;;18.53;91.09
34177;BME280;20450;49.074;9.158;2023-08-01T05:11:14;98359.66;;;18.71;90.17
34177;BME280;20450;49.074;9.158;2023-08-01T05:13:42;98388.69;;;18.86;90.04
34177;BME280;20450;49.074;9.158;2023-08-01T05:16:09;98401.13;;;18.97;90.21
34177;BME280;20450;49.074;9.158;2023-08-01T05:18:36;98392.22;;;19.05;90.51
34177;BME280;20450;49.074;9.158;2023-08-01T05:21:03;98371.84;;;19.11;90.40
34177;BME280;20450;49.074;9.158;2023-08-01T05:23:32;98361.59;;;19.16;90.15
34177;BME280;20450;49.074;9.158;2023-08-01T05:25:59;98359.63;;;19.22;90.23
34177;BME280;20450;49.074;9.158;2023-08-01T05:28:26;98373.22;;;19.27;90.08
34177;BME280;20450;49.074;9.158;2023-08-01T05:30:53;98367.16;;;19.30;89.83
34177;BME280;20450;49.074;9.158;2023-08-01T05:33:20;98376.69;;;19.32;89.66
34177;BME280;20450;49.074;9.158;2023-08-01T05:35:48;98389.78;;;19.35;89.62
34177;BME280;20450;49.074;9.158;2023-08-01T05:38:15;98389.19;;;19.38;89.76
34177;BME280;20450;49.074;9.158;2023-08-01T05:40:43;98392.41;;;19.40;89.25
34177;BME280;20450;49.074;9.158;2023-08-01T05:43:10;98389.91;;;19.44;89.35
34177;BME280;20450;49.074;9.158;2023-08-01T05:45:37;98393.66;;;19.48;89.24
34177;BME280;20450;49.074;9.158;2023-08-01T05:48:05;98389.22;;;19.52;89.15
34177;BME280;20450;49.074;9.158;2023-08-01T05:50:32;98394.09;;;19.55;88.98
34177;BME280;20450;49.074;9.158;2023-08-01T05:52:59;98387.78;;;19.55;88.69
34177;BME280;20450;49.074;9.158;2023-08-01T05:55:26;98395.09;;;19.59;88.22
34177;BME280;20450;49.074;9.158;2023-08-01T05:57:55;98395.78;;;19.65;88.07
34177;BME280;20450;49.074;9.158;2023-08-01T06:00:22;98380.69;;;19.21;87.89
34177;BME280;20450;49.074;9.158;2023-08-01T06:02:49;98379.22;;;18.97;89.23
34177;BME280;20450;49.074;9.158;2023-08-01T06:05:16;98398.22;;;18.88;89.16
34177;BME280;20450;49.074;9.158;2023-08-01T06:07:44;98398.50;;;19.05;90.16
34177;BME280;20450;49.074;9.158;2023-08-01T06:10:10;98400.75;;;19.17;89.64
34177;BME280;20450;49.074;9.158;2023-08-01T06:12:39;98441.94;;;19.25;89.47
34177;BME280;20450;49.074;9.158;2023-08-01T06:15:07;98460.47;;;19.33;89.54
34177;BME280;20450;49.074;9.158;2023-08-01T06:17:35;98459.78;;;19.41;89.82
34177;BME280;20450;49.074;9.158;2023-08-01T06:20:02;98441.13;;;19.43;89.93
34177;BME280;20450;49.074;9.158;2023-08-01T06:22:31;98426.41;;;19.21;90.80
34177;BME280;20450;49.074;9.158;2023-08-01T06:24:58;98426.22;;;18.67;93.02
34177;BME280;20450;49.074;9.158;2023-08-01T06:27:25;98431.75;;;18.43;93.61
34177;BME280;20450;49.074;9.158;2023-08-01T06:29:52;98444.47;;;18.29;95.76
34177;BME280;20450;49.074;9.158;2023-08-01T06:32:20;98442.06;;;18.04;97.59
34177;BME280;20450;49.074;9.158;2023-08-01T06:34:48;98419.06;;;17.87;98.86
34177;BME280;20450;49.074;9.158;2023-08-01T06:37:15;98425.16;;;17.79;99.72
34177;BME280;20450;49.074;9.158;2023-08-01T06:39:42;98429.88;;;17.73;100.00
34177;BME280;20450;49.074;9.158;2023-08-01T06:42:09;98415.56;;;17.57;100.00
34177;BME280;20450;49.074;9.158;2023-08-01T06:44:36;98402.31;;;17.46;100.00
34177;BME280;20450;49.074;9.158;2023-08-01T06:47:04;98399.09;;;17.39;100.00
34177;BME280;20450;49.074;9.158;2023-08-01T06:49:34;98405.06;;;17.41;100.00
34177;BME280;20450;49.074;9.158;2023-08-01T06:52:01;98401.81;;;17.39;100.00
34177;BME280;20450;49.074;9.158;2023-08-01T06:54:28;98405.63;;;17.38;100.00
34177;BME280;20450;49.074;9.158;2023-08-01T06:56:55;98417.69;;;17.32;100.00
34177;BME280;20450;49.074;9.158;2023-08-01T06:59:22;98419.28;;;17.38;100.00
34177;BME280;20450;49.074;9.158;2023-08-01T07:01:49;98414.63;;;17.43;100.00
34177;BME280;20450;49.074;9.158;2023-08-01T07:04:17;98409.44;;;17.42;100.00
34177;BME280;20450;49.074;9.158;2023-08-01T07:06:45;98404.59;;;17.34;100.00
34177;BME280;20450;49.074;9.158;2023-08-01T07:09:38;98408.38;;;17.38;100.00
34177;BME280;20450;49.074;9.158;2023-08-01T07:12:33;98419.28;;;17.38;100.00
34177;BME280;20450;49.074;9.158;2023-08-01T07:15:00;98418.69;;;17.46;100.00
34177;BME280;20450;49.074;9.158;2023-08-01T07:17:29;98406.16;;;17.40;100.00
34177;BME280;20450;49.074;9.158;2023-08-01T07:19:56;98395.25;;;17.40;100.00
34177;BME280;20450;49.074;9.158;2023-08-01T07:22:25;98399.59;;;17.46;100.00
34177;BME280;20450;49.074;9.158;2023-08-01T07:24:52;98404.25;;;17.40;100.00
34177;BME280;20450;49.074;9.158;2023-08-01T07:27:20;98400.41;;;17.41;100.00
34177;BME280;20450;49.074;9.158;2023-08-01T07:29:47;98395.53;;;17.43;100.00
34177;BME280;20450;49.074;9.158;2023-08-01T07:32:14;98390.38;;;17.37;100.00
34177;BME280;20450;49.074;9.158;2023-08-01T07:34:42;98396.84;;;17.46;100.00
34177;BME280;20450;49.074;9.158;2023-08-01T07:37:09;98401.75;;;17.49;100.00
34177;BME280;20450;49.074;9.158;2023-08-01T07:39:37;98390.81;;;17.49;100.00
34177;BME280;20450;49.074;9.158;2023-08-01T07:42:05;98393.50;;;17.54;100.00
34177;BME280;20450;49.074;9.158;2023-08-01T07:44:32;98391.41;;;17.41;100.00
34177;BME280;20450;49.074;9.158;2023-08-01T07:46:59;98403.06;;;17.51;100.00
34177;BME280;20450;49.074;9.158;2023-08-01T07:49:28;98399.75;;;17.54;100.00
34177;BME280;20450;49.074;9.158;2023-08-01T07:51:55;98401.75;;;17.73;100.00
34177;BME280;20450;49.074;9.158;2023-08-01T07:54:23;98394.25;;;17.59;97.93
34177;BME280;20450;49.074;9.158;2023-08-01T07:56:51;98394.88;;;17.75;97.70
34177;BME280;20450;49.074;9.158;2023-08-01T07:59:19;98407.38;;;17.81;97.16
34177;BME280;20450;49.074;9.158;2023-08-01T08:01:45;98405.75;;;17.80;96.45
34177;BME280;20450;49.074;9.158;2023-08-01T08:04:13;98409.59;;;17.79;95.17
34177;BME280;20450;49.074;9.158;2023-08-01T08:06:40;98416.25;;;17.92;95.12
34177;BME280;20450;49.074;9.158;2023-08-01T08:09:08;98411.84;;;17.96;95.80
34177;BME280;20450;49.074;9.158;2023-08-01T08:11:35;98414.59;;;17.96;96.18
34177;BME280;20450;49.074;9.158;2023-08-01T08:14:03;98417.47;;;18.04;96.50
34177;BME280;20450;49.074;9.158;2023-08-01T08:16:30;98422.41;;;18.02;95.88
34177;BME280;20450;49.074;9.158;2023-08-01T08:18:57;98419.69;;;18.02;96.04
34177;BME280;20450;49.074;9.158;2023-08-01T08:21:24;98406.28;;;17.82;95.03
34177;BME280;20450;49.074;9.158;2023-08-01T08:23:51;98400.28;;;17.80;95.14
34177;BME280;20450;49.074;9.158;2023-08-01T08:26:18;98406.09;;;17.97;95.50
34177;BME280;20450;49.074;9.158;2023-08-01T08:28:45;98406.41;;;17.96;95.18
34177;BME280;20450;49.074;9.158;2023-08-01T08:31:14;98414.00;;;17.99;94.15
34177;BME280;20450;49.074;9.158;2023-08-01T08:33:41;98410.59;;;18.07;93.64
34177;BME280;20450;49.074;9.158;2023-08-01T08:36:08;98406.03;;;18.02;93.87
34177;BME280;20450;49.074;9.158;2023-08-01T08:38:35;98406.22;;;18.11;93.84
34177;BME280;20450;49.074;9.158;2023-08-01T08:41:08;98414.03;;;18.17;93.68
34177;BME280;20450;49.074;9.158;2023-08-01T08:43:37;98422.06;;;18.09;93.89
34177;BME280;20450;49.074;9.158;2023-08-01T08:46:04;98414.22;;;18.02;93.94
34177;BME280;20450;49.074;9.158;2023-08-01T08:48:34;98419.09;;;18.05;96.40
34177;BME280;20450;49.074;9.158;2023-08-01T08:51:02;98420.34;;;17.94;97.01
34177;BME280;20450;49.074;9.158;2023-08-01T08:53:31;98423.31;;;17.74;99.71
34177;BME280;20450;49.074;9.158;2023-08-01T08:55:59;98425.44;;;17.77;100.00
34177;BME280;20450;49.074;9.158;2023-08-01T08:58:26;98432.06;;;17.71;100.00
34177;BME280;20450;49.074;9.158;2023-08-01T09:00:56;98422.00;;;17.90;100.00
34177;BME280;20450;49.074;9.158;2023-08-01T09:03:24;98437.16;;;18.06;100.00
34177;BME280;20450;49.074;9.158;2023-08-01T09:05:58;98437.06;;;18.11;100.00
34177;BME280;20450;49.074;9.158;2023-08-01T09:08:32;98449.50;;;18.22;100.00
34177;BME280;20450;49.074;9.158;2023-08-01T09:11:02;98444.19;;;18.31;100.00
34177;BME280;20450;49.074;9.158;2023-08-01T09:13:30;98445.06;;;18.26;100.00
34177;BME280;20450;49.074;9.158;2023-08-01T09:15:57;98449.13;;;18.29;100.00
34177;BME280;20450;49.074;9.158;2023-08-01T09:18:24;98458.28;;;18.19;100.00
34177;BME280;20450;49.074;9.158;2023-08-01T09:20:52;98463.91;;;18.28;99.91
34177;BME280;20450;49.074;9.158;2023-08-01T09:23:19;98460.97;;;18.48;100.00
34177;BME280;20450;49.074;9.158;2023-08-01T09:25:47;98456.81;;;18.50;99.51
34177;BME280;20450;49.074;9.158;2023-08-01T09:28:18;98447.56;;;18.46;98.32
34177;BME280;20450;49.074;9.158;2023-08-01T09:30:47;98461.53;;;18.63;98.15
34177;BME280;20450;49.074;9.158;2023-08-01T09:33:15;98456.81;;;19.06;98.72
34177;BME280;20450;49.074;9.158;2023-08-01T09:35:43;98451.19;;;19.62;98.20
34177;BME280;20450;49.074;9.158;2023-08-01T09:38:13;98447.25;;;19.81;96.46
34177;BME280;20450;49.074;9.158;2023-08-01T09:40:41;98439.66;;;19.78;93.10
34177;BME280;20450;49.074;9.158;2023-08-01T09:43:10;98439.97;;;19.90;94.11
34177;BME280;20450;49.074;9.158;2023-08-01T09:45:49;98446.19;;;20.23;94.17
34177;BME280;20450;49.074;9.158;2023-08-01T09:48:24;98442.91;;;20.34;92.62
34177;BME280;20450;49.074;9.158;2023-08-01T09:50:52;98446.47;;;20.48;92.35
34177;BME280;20450;49.074;9.158;2023-08-01T09:53:20;98452.47;;;20.50;91.05
34177;BME280;20450;49.074;9.158;2023-08-01T09:55:50;98450.56;;;20.59;90.14
34177;BME280;20450;49.074;9.158;2023-08-01T09:58:21;98453.31;;;20.59;89.29
34177;BME280;20450;49.074;9.158;2023-08-01T10:00:51;98459.72;;;20.55;88.60
34177;BME280;20450;49.074;9.158;2023-08-01T10:03:19;98473.38;;;20.33;87.72
34177;BME280;20450;49.074;9.158;2023-08-01T10:05:48;98464.66;;;20.31;85.85
34177;BME280;20450;49.074;9.158;2023-08-01T10:08:16;98474.97;;;20.61;86.71
34177;BME280;20450;49.074;9.158;2023-08-01T10:10:46;98474.34;;;20.64;86.78
34177;BME280;20450;49.074;9.158;2023-08-01T10:13:14;98472.75;;;20.63;85.15
34177;BME280;20450;49.074;9.158;2023-08-01T10:15:41;98471.13;;;20.62;83.93
34177;BME280;20450;49.074;9.158;2023-08-01T10:18:09;98473.34;;;21.09;83.66
34177;BME280;20450;49.074;9.158;2023-08-01T10:20:37;98467.34;;;21.51;81.95
34177;BME280;20450;49.074;9.158;2023-08-01T10:23:05;98463.84;;;21.81;78.98
34177;BME280;20450;49.074;9.158;2023-08-01T10:25:35;98457.44;;;22.03;79.71
34177;BME280;20450;49.074;9.158;2023-08-01T10:28:06;98453.00;;;22.24;77.36
34177;BME280;20450;49.074;9.158;2023-08-01T10:30:33;98454.91;;;22.62;74.85
34177;BME280;20450;49.074;9.158;2023-08-01T10:33:00;98452.81;;;22.93;75.41
34177;BME280;20450;49.074;9.158;2023-08-01T10:35:34;98453.94;;;22.75;72.67
34177;BME280;20450;49.074;9.158;2023-08-01T10:38:06;98464.34;;;22.95;72.07
34177;BME280;20450;49.074;9.158;2023-08-01T10:40:35;98468.41;;;23.24;70.49
34177;BME280;20450;49.074;9.158;2023-08-01T10:43:05;98472.91;;;23.19;68.91
34177;BME280;20450;49.074;9.158;2023-08-01T10:45:32;98460.72;;;23.55;66.56
34177;BME280;20450;49.074;9.158;2023-08-01T10:48:06;98455.88;;;24.06;64.34
34177;BME280;20450;49.074;9.158;2023-08-01T10:50:34;98458.53;;;24.32;62.67
34177;BME280;20450;49.074;9.158;2023-08-01T10:53:05;98449.75;;;24.38;61.35
34177;BME280;20450;49.074;9.158;2023-08-01T10:55:40;98446.38;;;24.24;60.58
34177;BME280;20450;49.074;9.158;2023-08-01T10:58:10;98451.22;;;24.65;59.13
34177;BME280;20450;49.074;9.158;2023-08-01T11:00:39;98445.16;;;25.13;57.89
34177;BME280;20450;49.074;9.158;2023-08-01T11:03:06;98449.69;;;25.38;57.08
34177;BME280;20450;49.074;9.158;2023-08-01T11:05:33;98446.75;;;25.55;56.02
34177;BME280;20450;49.074;9.158;2023-08-01T11:08:02;98451.00;;;25.52;55.48
34177;BME280;20450;49.074;9.158;2023-08-01T11:10:32;98446.47;;;25.48;55.42
34177;BME280;20450;49.074;9.158;2023-08-01T11:12:59;98454.03;;;26.04;53.97
34177;BME280;20450;49.074;9.158;2023-08-01T11:15:28;98449.91;;;25.65;52.96
34177;BME280;20450;49.074;9.158;2023-08-01T11:17:55;98452.53;;;26.06;52.33
34177;BME280;20450;49.074;9.158;2023-08-01T11:20:24;98470.78;;;26.31;50.88
34177;BME280;20450;49.074;9.158;2023-08-01T11:22:53;98460.50;;;26.20;51.06
34177;BME280;20450;49.074;9.158;2023-08-01T11:25:32;98477.91;;;26.44;49.63
34177;BME280;20450;49.074;9.158;2023-08-01T11:28:03;98473.22;;;26.69;49.69
34177;BME280;20450;49.074;9.158;2023-08-01T11:30:33;98482.75;;;26.23;48.29
34177;BME280;20450;49.074;9.158;2023-08-01T11:33:01;98483.78;;;25.62;48.87
34177;BME280;20450;49.074;9.158;2023-08-01T11:35:28;98494.25;;;25.69;47.95
34177;BME280;20450;49.074;9.158;2023-08-01T11:37:56;98490.28;;;26.35;48.52
34177;BME280;20450;49.074;9.158;2023-08-01T11:40:23;98490.72;;;26.49;46.62
34177;BME280;20450;49.074;9.158;2023-08-01T11:42:56;98486.91;;;26.29;47.07
34177;BME280;20450;49.074;9.158;2023-08-01T11:45:23;98495.69;;;26.19;47.14
34177;BME280;20450;49.074;9.158;2023-08-01T11:47:52;98501.69;;;26.33;46.65
34177;BME280;20450;49.074;9.158;2023-08-01T11:50:21;98502.84;;;26.32;45.32
34177;BME280;20450;49.074;9.158;2023-08-01T11:52:49;98520.06;;;26.62;44.87
34177;BME280;20450;49.074;9.158;2023-08-01T11:55:21;98517.53;;;26.93;45.68
34177;BME280;20450;49.074;9.158;2023-08-01T11:57:56;98519.94;;;26.58;45.33
34177;BME280;20450;49.074;9.158;2023-08-01T12:00:25;98511.28;;;26.60;45.60
34177;BME280;20450;49.074;9.158;2023-08-01T12:03:04;98517.56;;;26.00;45.84
34177;BME280;20450;49.074;9.158;2023-08-01T12:05:33;98510.88;;;26.01;46.50
34177;BME280;20450;49.074;9.158;2023-08-01T12:08:08;98511.19;;;25.67;47.17
34177;BME280;20450;49.074;9.158;2023-08-01T12:10:40;98509.94;;;25.03;48.29
34177;BME280;20450;49.074;9.158;2023-08-01T12:13:20;98508.75;;;24.83;50.95
34177;BME280;20450;49.074;9.158;2023-08-01T12:15:47;98528.97;;;24.75;48.63
34177;BME280;20450;49.074;9.158;2023-08-01T12:18:21;98515.97;;;24.76;49.45
34177;BME280;20450;49.074;9.158;2023-08-01T12:21:08;98526.69;;;24.77;50.70
34177;BME280;20450;49.074;9.158;2023-08-01T12:23:36;98524.81;;;24.61;49.56
34177;BME280;20450;49.074;9.158;2023-08-01T12:26:03;98515.16;;;24.38;48.68
34177;BME280;20450;49.074;9.158;2023-08-01T12:28:30;98519.09;;;24.37;49.60
34177;BME280;20450;49.074;9.158;2023-08-01T12:30:57;98522.22;;;24.18;48.91
34177;BME280;20450;49.074;9.158;2023-08-01T12:33:25;98522.34;;;24.30;49.78
34177;BME280;20450;49.074;9.158;2023-08-01T12:35:54;98524.41;;;24.42;49.42
34177;BME280;20450;49.074;9.158;2023-08-01T12:38:21;98530.59;;;24.39;48.58
34177;BME280;20450;49.074;9.158;2023-08-01T12:40:48;98538.56;;;24.32;47.13
34177;BME280;20450;49.074;9.158;2023-08-01T12:43:15;98533.66;;;24.46;48.18
34177;BME280;20450;49.074;9.158;2023-08-01T12:45:42;98523.41;;;24.46;48.14
34177;BME280;20450;49.074;9.158;2023-08-01T12:48:09;98530.13;;;24.37;48.13
34177;BME280;20450;49.074;9.158;2023-08-01T12:50:38;98532.34;;;24.43;47.53
34177;BME280;20450;49.074;9.158;2023-08-01T12:53:05;98530.84;;;24.54;48.45
34177;BME280;20450;49.074;9.158;2023-08-01T12:55:33;98531.72;;;24.38;47.16
34177;BME280;20450;49.074;9.158;2023-08-01T12:58:01;98540.00;;;24.38;47.75
34177;BME280;20450;49.074;9.158;2023-08-01T13:00:29;98546.50;;;24.42;45.26
34177;BME280;20450;49.074;9.158;2023-08-01T13:02:56;98537.88;;;24.43;45.10
34177;BME280;20450;49.074;9.158;2023-08-01T13:05:23;98542.59;;;24.43;45.81